Time;durP1;ratioP1;P1;durP2;ratioP2;P2;SDS_P1;SDS_P2;PMS_P1;PMS_P2;Temp;Humidity;BMP_temperature;BMP_pressure;BME280_temperature;BME280_humidity;BME280_pressure;Samples;Min_cycle;Max_cycle;Signal;HPM_P1;HPM_P2
2023/01/23 00:00:57;;;;;;;16.15;8.75;;;;;;;-143.48;89.18;118439.88;5095861;28;20471;-69
2023/01/23 00:03:22;;;;;;;17.58;8.32;;;;;;;-143.48;89.52;118439.88;5077889;28;20034;-68
2023/01/23 00:05:58;;;;;;;20.52;8.88;;;;;;;-143.48;89.31;118439.88;5077971;28;20024;-68
2023/01/23 00:08:23;;;;;;;16.25;8.20;;;;;;;-143.48;88.91;118439.88;5096927;28;20063;-68
2023/01/23 00:10:49;;;;;;;20.15;8.20;;;;;;;-143.48;89.23;118439.88;5098791;28;20020;-68
2023/01/23 00:13:16;;;;;;;15.80;8.63;;;;;;;-143.48;89.73;118439.88;5110232;28;20023;-68
2023/01/23 00:15:41;;;;;;;14.25;8.50;;;;;;;-143.48;89.87;118439.88;5114741;28;20019;-69
2023/01/23 00:18:06;;;;;;;15.55;7.60;;;;;;;-143.48;89.60;118439.88;5115309;28;20028;-69
2023/01/23 00:20:32;;;;;;;16.30;7.82;;;;;;;-143.48;89.47;118439.88;5115228;28;20075;-69
2023/01/23 00:22:57;;;;;;;18.27;8.48;;;;;;;-143.48;89.60;118439.88;5115867;28;20051;-69
2023/01/23 00:25:22;;;;;;;19.80;8.32;;;;;;;-143.48;89.24;118439.88;5115975;28;20048;-68
2023/01/23 00:27:47;;;;;;;17.27;8.30;;;;;;;-143.48;89.63;118439.88;5116052;28;20023;-69
2023/01/23 00:30:14;;;;;;;18.33;7.85;;;;;;;-143.48;90.04;118439.88;5116299;28;20031;-69
2023/01/23 00:32:40;;;;;;;15.77;8.10;;;;;;;-143.48;90.63;118439.88;5115484;28;20046;-69
2023/01/23 00:35:05;;;;;;;16.45;8.40;;;;;;;-143.48;90.62;118439.88;5114739;28;20032;-68
2023/01/23 00:37:31;;;;;;;15.68;8.52;;;;;;;-143.48;90.63;118439.88;5114917;28;20023;-69
2023/01/23 00:39:56;;;;;;;19.42;8.77;;;;;;;-143.48;90.26;118439.88;5113632;28;20032;-69
2023/01/23 00:42:21;;;;;;;21.50;8.52;;;;;;;-143.48;90.33;118439.88;5112621;28;20084;-68
2023/01/23 00:44:47;;;;;;;17.00;8.57;;;;;;;-143.48;90.13;118439.88;5107201;28;20028;-69
2023/01/23 00:47:12;;;;;;;15.73;8.18;;;;;;;-143.48;91.25;118439.88;5100364;28;20028;-68
2023/01/23 00:49:37;;;;;;;15.07;8.73;;;;;;;-143.48;90.96;118439.88;5098934;28;20091;-69
2023/01/23 00:52:03;;;;;;;23.75;8.32;;;;;;;-143.48;90.90;118439.88;5100428;28;20020;-68
2023/01/23 00:54:29;;;;;;;18.02;8.57;;;;;;;-143.48;90.66;118439.88;5099645;28;20024;-68
2023/01/23 00:56:54;;;;;;;17.48;7.72;;;;;;;-143.48;90.89;118439.88;5100402;28;20023;-68
2023/01/23 00:59:19;;;;;;;15.68;8.48;;;;;;;-143.48;91.82;118439.88;5098589;28;20081;-68
2023/01/23 01:01:45;;;;;;;22.33;8.38;;;;;;;-143.48;91.36;118439.88;5098089;28;20032;-68
2023/01/23 01:04:10;;;;;;;19.92;8.30;;;;;;;-143.48;92.08;118439.88;5098233;28;20020;-68
2023/01/23 01:06:35;;;;;;;18.60;8.63;;;;;;;-143.48;91.47;118439.88;5098155;28;20020;-68
2023/01/23 01:09:01;;;;;;;15.45;7.50;;;;;;;-143.48;91.33;118439.88;5097589;28;20016;-68
2023/01/23 01:11:27;;;;;;;17.85;8.50;;;;;;;-143.48;91.64;118439.88;5079036;28;20383;-68
2023/01/23 01:13:52;;;;;;;16.73;8.45;;;;;;;-143.48;91.69;118439.88;5078464;28;20031;-68
2023/01/23 01:16:18;;;;;;;20.08;9.35;;;;;;;-143.48;91.76;118439.88;5096787;28;20077;-68
2023/01/23 01:18:44;;;;;;;17.80;8.63;;;;;;;-143.48;91.80;118439.88;5096548;28;20023;-69
2023/01/23 01:21:12;;;;;;;16.75;8.38;;;;;;;-143.48;91.21;118439.88;5095603;28;20052;-68
2023/01/23 01:23:39;;;;;;;16.63;9.05;;;;;;;-143.48;91.77;118439.88;5095138;28;20102;-68
2023/01/23 01:26:05;;;;;;;19.00;8.43;;;;;;;-143.48;91.38;118439.88;5095191;28;20479;-68
2023/01/23 01:28:32;;;;;;;16.50;8.88;;;;;;;-143.48;91.85;118439.88;5094573;28;20483;-68
2023/01/23 01:31:02;;;;;;;14.57;8.27;;;;;;;-143.48;91.83;118439.88;5095179;28;20051;-68
2023/01/23 01:33:27;;;;;;;19.40;9.30;;;;;;;-143.48;91.49;118439.88;5093274;28;20024;-69
2023/01/23 01:35:55;;;;;;;17.77;9.18;;;;;;;-143.48;91.15;118439.88;5092914;28;20031;-69
2023/01/23 01:38:21;;;;;;;26.77;9.45;;;;;;;-143.48;91.41;118439.88;5092900;28;20071;-68
2023/01/23 01:40:46;;;;;;;17.80;8.95;;;;;;;-143.48;91.36;118439.88;5092894;28;20099;-68
2023/01/23 01:43:21;;;;;;;18.70;8.35;;;;;;;-143.48;90.61;118439.88;5074579;28;20166;-69
2023/01/23 01:46:18;;;;;;;15.63;8.95;;;;;;;-143.48;91.25;118439.88;5092847;28;20157;-69
2023/01/23 01:49:01;;;;;;;17.67;9.10;;;;;;;-143.48;91.92;118439.88;5106735;28;20031;-70
2023/01/23 01:51:59;;;;;;;23.90;8.80;;;;;;;-143.48;91.02;118439.88;5101560;28;20407;-68
2023/01/23 01:54:33;;;;;;;19.27;8.65;;;;;;;-143.48;90.33;118439.88;5069789;28;20044;-68
2023/01/23 01:57:15;;;;;;;13.75;8.20;;;;;;;-143.48;90.40;118439.88;5094548;28;20048;-67
2023/01/23 01:59:55;;;;;;;15.05;8.18;;;;;;;-143.48;91.05;118439.88;5094694;28;20440;-68
2023/01/23 02:02:35;;;;;;;18.95;8.50;;;;;;;-143.48;91.00;118439.88;5094543;28;20058;-68
2023/01/23 02:05:05;;;;;;;17.80;8.32;;;;;;;-143.48;90.79;118439.88;5094559;28;20027;-68
2023/01/23 02:07:45;;;;;;;16.90;8.55;;;;;;;-143.48;90.63;118439.88;5076228;28;20114;-68
2023/01/23 02:10:13;;;;;;;20.95;8.57;;;;;;;-143.48;91.27;118439.88;5094384;28;20063;-68
2023/01/23 02:12:38;;;;;;;20.52;8.43;;;;;;;-143.48;91.56;118439.88;5076518;28;20024;-68
2023/01/23 02:15:06;;;;;;;18.20;8.45;;;;;;;-143.48;91.64;118439.88;5094464;28;20050;-68
2023/01/23 02:17:34;;;;;;;19.92;8.63;;;;;;;-143.48;91.91;118439.88;5094180;28;20016;-68
2023/01/23 02:20:23;;;;;;;17.13;8.90;;;;;;;-143.48;91.73;118439.88;5054039;28;1151545;-68
2023/01/23 02:23:09;;;;;;;16.55;8.35;;;;;;;-143.48;91.83;118439.88;5076883;28;20456;-68
2023/01/23 02:25:44;;;;;;;19.90;8.50;;;;;;;-143.48;91.77;118439.88;5095046;28;20023;-68
2023/01/23 02:28:14;;;;;;;18.15;9.07;;;;;;;-143.48;91.83;118439.88;5095001;28;20020;-68
2023/01/23 02:30:41;;;;;;;18.80;8.35;;;;;;;-143.48;91.26;118439.88;5076878;28;20120;-68
2023/01/23 02:33:19;;;;;;;16.25;8.45;;;;;;;-143.48;91.70;118439.88;5095247;28;20028;-67
2023/01/23 02:35:45;;;;;;;15.60;8.18;;;;;;;-143.48;91.86;118439.88;5094968;28;20115;-68
2023/01/23 02:38:11;;;;;;;15.60;8.32;;;;;;;-143.48;92.00;118439.88;5094953;28;20544;-68
2023/01/23 02:40:39;;;;;;;22.55;8.80;;;;;;;-143.48;91.84;118439.88;5076598;28;20111;-68
2023/01/23 02:43:08;;;;;;;15.55;8.27;;;;;;;-143.48;92.30;118439.88;5094811;28;20031;-68
2023/01/23 02:45:33;;;;;;;18.60;9.23;;;;;;;-143.48;92.60;118439.88;5094889;28;20067;-68
2023/01/23 02:48:00;;;;;;;16.23;8.15;;;;;;;-143.48;92.37;118439.88;5094764;28;20063;-68
2023/01/23 02:50:26;;;;;;;18.90;8.07;;;;;;;-143.48;91.83;118439.88;5094800;28;20028;-68
2023/01/23 02:52:53;;;;;;;16.88;8.43;;;;;;;-143.48;91.96;118439.88;5094665;28;20030;-68
2023/01/23 02:55:19;;;;;;;18.88;9.00;;;;;;;-143.48;91.95;118439.88;5076661;28;20024;-68
2023/01/23 02:57:44;;;;;;;19.25;8.43;;;;;;;-143.48;92.11;118439.88;5095697;28;20484;-68
2023/01/23 03:00:18;;;;;;;15.25;8.70;;;;;;;-143.48;92.37;118439.88;5076274;28;20024;-67
2023/01/23 03:02:46;;;;;;;20.70;8.75;;;;;;;-143.48;92.01;118439.88;5094612;28;20067;-67
2023/01/23 03:05:12;;;;;;;20.15;8.75;;;;;;;-143.48;91.66;118439.88;5094336;28;20031;-67
2023/01/23 03:07:37;;;;;;;16.02;8.82;;;;;;;-143.48;91.94;118439.88;5094209;28;20028;-67
2023/01/23 03:10:04;;;;;;;19.55;8.68;;;;;;;-143.48;92.05;118439.88;5094422;28;20085;-67
2023/01/23 03:12:29;;;;;;;17.50;9.18;;;;;;;-143.48;91.61;118439.88;5093744;28;20024;-67
2023/01/23 03:14:55;;;;;;;21.65;8.80;;;;;;;-143.48;91.83;118439.88;5094076;28;20026;-67
2023/01/23 03:17:21;;;;;;;18.02;8.70;;;;;;;-143.48;91.78;118439.88;5094196;28;20020;-67
2023/01/23 03:19:47;;;;;;;20.60;8.63;;;;;;;-143.48;91.57;118439.88;5093961;28;20028;-67
2023/01/23 03:22:13;;;;;;;17.45;9.00;;;;;;;-143.48;91.46;118439.88;5094060;28;20429;-67
2023/01/23 03:24:39;;;;;;;16.80;8.38;;;;;;;-143.48;91.30;118439.88;5093907;28;20471;-68
2023/01/23 03:27:04;;;;;;;19.55;8.65;;;;;;;-143.48;91.10;118439.88;5094002;28;20027;-67
2023/01/23 03:32:14;;;;;;;15.70;8.50;;;;;;;-143.48;90.83;118439.88;5093923;28;20034;-67
2023/01/23 03:34:40;;;;;;;16.45;9.38;;;;;;;-143.48;91.06;118439.88;5094027;28;20501;-67
2023/01/23 03:37:09;;;;;;;17.25;8.52;;;;;;;-143.48;91.59;118439.88;5093631;28;20020;-67
2023/01/23 03:42:18;;;;;;;17.30;8.85;;;;;;;-143.48;91.69;118439.88;5096442;28;20508;-68
2023/01/23 03:44:43;;;;;;;21.80;9.32;;;;;;;-143.48;91.95;118439.88;5093760;28;20044;-68
2023/01/23 03:47:09;;;;;;;17.95;8.63;;;;;;;-143.48;91.67;118439.88;5094179;28;20103;-68
2023/01/23 03:49:35;;;;;;;17.10;8.63;;;;;;;-143.48;91.57;118439.88;5093866;28;20033;-68
2023/01/23 03:52:00;;;;;;;19.67;8.57;;;;;;;-143.48;91.15;118439.88;5075489;28;20506;-68
2023/01/23 03:54:26;;;;;;;19.05;8.20;;;;;;;-143.48;91.10;118439.88;5075628;28;20050;-68
2023/01/23 03:56:52;;;;;;;18.55;8.77;;;;;;;-143.48;91.57;118439.88;5075401;28;20020;-68
2023/01/23 03:59:17;;;;;;;17.45;8.23;;;;;;;-143.48;91.67;118439.88;5093425;28;20439;-68
2023/01/23 04:01:42;;;;;;;17.27;8.60;;;;;;;-143.48;91.61;118439.88;5093503;28;20427;-68
2023/01/23 04:04:08;;;;;;;19.40;8.88;;;;;;;-143.48;91.75;118439.88;5093418;28;20055;-68
2023/01/23 04:06:34;;;;;;;22.00;8.63;;;;;;;-143.48;91.77;118439.88;5093278;28;20470;-68
2023/01/23 04:08:59;;;;;;;17.65;8.90;;;;;;;-143.48;91.88;118439.88;5075192;28;20020;-69
2023/01/23 04:11:25;;;;;;;18.30;8.68;;;;;;;-143.48;92.15;118439.88;5075274;28;20074;-68
2023/01/23 04:13:51;;;;;;;20.08;9.18;;;;;;;-143.48;91.89;118439.88;5093349;28;20035;-68
2023/01/23 04:16:16;;;;;;;19.15;9.15;;;;;;;-143.48;91.96;118439.88;5093282;28;20024;-69
2023/01/23 04:18:42;;;;;;;17.85;9.07;;;;;;;-143.48;91.92;118439.88;5093242;28;20024;-68
2023/01/23 04:21:07;;;;;;;21.17;9.23;;;;;;;-143.48;92.42;118439.88;5093927;28;20510;-68
2023/01/23 04:23:33;;;;;;;16.45;8.80;;;;;;;-143.48;92.41;118439.88;5093585;28;20047;-68
2023/01/23 04:25:58;;;;;;;18.27;8.65;;;;;;;-143.48;91.67;118439.88;5096041;28;20099;-68
2023/01/23 04:28:23;;;;;;;15.82;8.65;;;;;;;-143.48;91.51;118439.88;5097372;28;20119;-69
2023/01/23 04:30:50;;;;;;;19.27;8.82;;;;;;;-143.48;91.76;118439.88;5097352;28;20020;-69
2023/01/23 04:33:16;;;;;;;19.52;9.23;;;;;;;-143.48;91.39;118439.88;5097287;28;20073;-68
2023/01/23 04:35:55;;;;;;;20.27;9.32;;;;;;;-143.48;91.23;118439.88;5099594;28;20047;-68
2023/01/23 04:38:21;;;;;;;19.35;9.38;;;;;;;-143.48;91.59;118439.88;5102911;28;20153;-67
2023/01/23 04:40:48;;;;;;;18.77;9.98;;;;;;;-143.48;91.65;118439.88;5097604;28;20024;-68
2023/01/23 04:43:13;;;;;;;21.92;8.48;;;;;;;-143.48;91.75;118439.88;5098505;28;20479;-67
2023/01/23 04:45:39;;;;;;;22.08;9.57;;;;;;;-143.48;91.63;118439.88;5097140;28;20030;-67
2023/01/23 04:48:04;;;;;;;21.90;9.45;;;;;;;-143.48;91.95;118439.88;5097043;28;20091;-69
2023/01/23 04:50:31;;;;;;;20.23;9.27;;;;;;;-143.48;91.51;118439.88;5097186;28;20417;-68
2023/01/23 04:52:57;;;;;;;17.45;9.38;;;;;;;-143.48;91.36;118439.88;5078674;28;20028;-67
2023/01/23 04:55:22;;;;;;;21.60;9.48;;;;;;;-143.48;90.74;118439.88;5078648;28;20028;-67
2023/01/23 04:57:47;;;;;;;15.82;9.25;;;;;;;-143.48;91.29;118439.88;5096800;28;20468;-68
2023/01/23 05:00:13;;;;;;;26.80;10.38;;;;;;;-143.48;91.19;118439.88;5097642;28;20402;-68
2023/01/23 05:02:38;;;;;;;17.17;9.25;;;;;;;-143.48;91.24;118439.88;5096797;28;20107;-68
2023/01/23 05:05:05;;;;;;;18.10;9.50;;;;;;;-143.48;91.45;118439.88;5079508;28;20382;-68
2023/01/23 05:07:30;;;;;;;17.58;9.52;;;;;;;-143.48;90.90;118439.88;5096597;28;20077;-68
2023/01/23 05:09:56;;;;;;;18.00;9.57;;;;;;;-143.48;91.41;118439.88;5098182;28;20020;-68
2023/01/23 05:12:21;;;;;;;20.20;10.15;;;;;;;-143.48;91.70;118439.88;5078430;28;20020;-68
2023/01/23 05:14:46;;;;;;;20.58;9.80;;;;;;;-143.48;91.81;118439.88;5096569;28;20070;-68
2023/01/23 05:17:12;;;;;;;19.90;9.38;;;;;;;-143.48;91.96;118439.88;5078125;28;20012;-68
2023/01/23 05:19:37;;;;;;;17.67;9.43;;;;;;;-143.48;91.85;118439.88;5096473;28;20482;-68
2023/01/23 05:22:02;;;;;;;16.48;9.75;;;;;;;-143.48;91.82;118439.88;5096653;28;20063;-68
2023/01/23 05:24:27;;;;;;;20.98;10.50;;;;;;;-143.48;91.77;118439.88;5096468;28;20472;-68
2023/01/23 05:26:53;;;;;;;20.08;10.10;;;;;;;-143.48;91.64;118439.88;5078168;28;20165;-67
2023/01/23 05:29:18;;;;;;;21.55;10.18;;;;;;;-143.48;91.57;118439.88;5096660;28;20131;-68
2023/01/23 05:31:43;;;;;;;21.67;10.48;;;;;;;-143.48;91.83;118439.88;5078532;28;20027;-68
2023/01/23 05:34:09;;;;;;;20.27;9.95;;;;;;;-143.48;91.81;118439.88;5097847;28;20028;-67
2023/01/23 05:36:34;;;;;;;20.77;10.20;;;;;;;-143.48;91.96;118439.88;5095916;28;20501;-67
2023/01/23 05:38:59;;;;;;;18.30;9.48;;;;;;;-143.48;92.08;118439.88;5098787;28;20383;-68
2023/01/23 05:41:24;;;;;;;18.15;9.48;;;;;;;-143.48;91.59;118439.88;5100527;28;20377;-67
2023/01/23 05:43:50;;;;;;;22.75;9.90;;;;;;;-143.48;91.26;118439.88;5101097;28;20035;-68
2023/01/23 05:46:16;;;;;;;22.13;10.15;;;;;;;-143.48;91.24;118439.88;5097567;28;20024;-68
2023/01/23 05:48:41;;;;;;;19.08;9.77;;;;;;;-143.48;92.12;118439.88;5099258;28;20020;-68
2023/01/23 05:51:06;;;;;;;18.88;10.18;;;;;;;-143.48;92.16;118439.88;5100073;28;20024;-68
2023/01/23 05:53:31;;;;;;;22.20;10.77;;;;;;;-143.48;92.06;118439.88;5097602;28;20099;-68
2023/01/23 05:55:57;;;;;;;20.90;10.02;;;;;;;-143.48;92.15;118439.88;5096151;28;20024;-67
2023/01/23 05:58:22;;;;;;;19.95;10.57;;;;;;;-143.48;91.51;118439.88;5095849;28;20417;-67
2023/01/23 06:00:47;;;;;;;17.98;10.48;;;;;;;-143.48;91.22;118439.88;5077568;28;20019;-68
2023/01/23 06:03:13;;;;;;;21.55;10.40;;;;;;;-143.48;91.58;118439.88;5095578;28;20027;-67
2023/01/23 06:05:39;;;;;;;20.95;10.85;;;;;;;-143.48;92.12;118439.88;5096955;28;20398;-68
2023/01/23 06:08:05;;;;;;;22.83;10.40;;;;;;;-143.48;92.58;118439.88;5106858;28;20024;-69
2023/01/23 06:10:30;;;;;;;18.02;9.52;;;;;;;-143.48;92.37;118439.88;5095771;28;20035;-68
2023/01/23 06:12:56;;;;;;;25.05;10.43;;;;;;;-143.48;91.85;118439.88;5095845;28;20026;-68
2023/01/23 06:15:21;;;;;;;21.50;10.05;;;;;;;-143.48;91.88;118439.88;5095439;28;20051;-68
2023/01/23 06:17:46;;;;;;;17.15;9.85;;;;;;;-143.48;91.97;118439.88;5077562;28;20048;-68
2023/01/23 06:20:12;;;;;;;17.35;9.77;;;;;;;-143.48;91.91;118439.88;5095020;28;20521;-68
2023/01/23 06:22:38;;;;;;;18.33;10.13;;;;;;;-143.48;91.98;118439.88;5096080;28;20028;-68
2023/01/23 06:25:03;;;;;;;19.75;10.55;;;;;;;-143.48;91.48;118439.88;5076345;28;20028;-68
2023/01/23 06:27:29;;;;;;;17.02;9.80;;;;;;;-143.48;91.02;118439.88;5095105;28;20017;-68
2023/01/23 06:29:54;;;;;;;23.00;10.52;;;;;;;-143.48;91.28;118439.88;5095317;28;20045;-68
2023/01/23 06:32:19;;;;;;;21.80;10.25;;;;;;;-143.48;91.62;118439.88;5104763;28;20027;-68
2023/01/23 06:34:45;;;;;;;23.73;10.35;;;;;;;-143.48;92.54;118439.88;5114650;28;20035;-71
2023/01/23 06:37:10;;;;;;;21.80;10.50;;;;;;;-143.48;92.83;118439.88;5101595;28;20020;-68
2023/01/23 06:39:37;;;;;;;19.58;10.40;;;;;;;-143.48;92.38;118439.88;5098138;28;20036;-68
2023/01/23 06:42:04;;;;;;;22.17;10.60;;;;;;;-143.48;92.05;118439.88;5095056;28;20030;-69
2023/01/23 06:44:31;;;;;;;23.42;10.43;;;;;;;-143.48;92.04;118439.88;5095116;28;20027;-68
2023/01/23 06:46:56;;;;;;;21.48;10.05;;;;;;;-143.48;91.21;118439.88;5094626;28;20494;-69
2023/01/23 06:49:21;;;;;;;17.95;10.18;;;;;;;-143.48;91.30;118439.88;5094245;28;20020;-68
2023/01/23 06:51:47;;;;;;;19.70;10.63;;;;;;;-143.48;92.68;118439.88;5096943;28;20027;-68
2023/01/23 06:54:12;;;;;;;18.42;10.50;;;;;;;-143.48;92.83;118439.88;5102537;28;20052;-69
2023/01/23 06:56:37;;;;;;;19.20;10.55;;;;;;;-143.48;93.16;118439.88;5096928;28;20024;-68
2023/01/23 06:59:02;;;;;;;21.85;10.65;;;;;;;-143.48;93.36;118439.88;5076328;28;20115;-68
2023/01/23 07:01:28;;;;;;;22.73;11.02;;;;;;;-143.48;93.26;118439.88;5076303;28;20466;-68
2023/01/23 07:03:53;;;;;;;27.92;10.60;;;;;;;-143.48;93.50;118439.88;5094475;28;20030;-68
2023/01/23 07:06:19;;;;;;;24.98;10.85;;;;;;;-143.48;93.43;118439.88;5094657;28;20020;-68
2023/01/23 07:08:44;;;;;;;20.98;10.57;;;;;;;-143.48;93.54;118439.88;5094277;28;20071;-68
2023/01/23 07:11:09;;;;;;;25.98;11.98;;;;;;;-143.48;93.86;118439.88;5076359;28;20113;-68
2023/01/23 07:13:35;;;;;;;22.08;11.23;;;;;;;-143.48;93.82;118439.88;5075955;28;20039;-68
2023/01/23 07:16:00;;;;;;;26.73;11.30;;;;;;;-143.48;93.62;118439.88;5093972;28;20074;-68
2023/01/23 07:18:28;;;;;;;22.42;10.77;;;;;;;-143.48;94.27;118439.88;5093826;28;20042;-68
2023/01/23 07:20:53;;;;;;;25.65;10.90;;;;;;;-143.48;93.74;118439.88;5094206;28;20128;-68
2023/01/23 07:23:19;;;;;;;22.15;10.55;;;;;;;-143.48;92.78;118439.88;5075973;28;20043;-68
2023/01/23 07:25:44;;;;;;;27.13;11.90;;;;;;;-143.48;92.41;118439.88;5094117;28;20085;-69
2023/01/23 07:28:10;;;;;;;21.00;11.20;;;;;;;-143.48;92.46;118439.88;5075675;28;20065;-68
2023/01/23 07:30:35;;;;;;;20.35;10.40;;;;;;;-143.48;92.58;118439.88;5093190;28;20432;-68
2023/01/23 07:33:01;;;;;;;20.17;11.20;;;;;;;-143.48;92.32;118439.88;5074002;28;20107;-69
2023/01/23 07:35:26;;;;;;;22.95;11.00;;;;;;;-143.48;91.97;118439.88;5092347;28;20073;-68
2023/01/23 07:37:52;;;;;;;18.33;10.85;;;;;;;-143.48;93.09;118439.88;5091845;28;20406;-68
2023/01/23 07:40:17;;;;;;;25.25;11.35;;;;;;;-143.48;93.58;118439.88;5092417;28;20070;-68
2023/01/23 07:42:43;;;;;;;22.33;11.15;;;;;;;-143.48;93.74;118439.88;5092137;28;20073;-68
2023/01/23 07:45:09;;;;;;;25.67;11.02;;;;;;;-143.48;93.40;118439.88;5091980;28;20536;-69
2023/01/23 07:47:35;;;;;;;26.10;11.77;;;;;;;-143.48;93.32;118439.88;5092951;28;20036;-68
2023/01/23 07:50:01;;;;;;;26.88;11.48;;;;;;;-143.48;93.39;118439.88;5093669;28;20016;-68
2023/01/23 07:52:26;;;;;;;23.63;12.65;;;;;;;-143.48;93.86;118439.88;5093473;28;20043;-67
2023/01/23 07:54:52;;;;;;;26.25;12.20;;;;;;;-143.48;93.76;118439.88;5093573;28;20027;-68
2023/01/23 07:57:17;;;;;;;21.48;11.85;;;;;;;-143.48;94.46;118439.88;5075572;28;20040;-68
2023/01/23 07:59:42;;;;;;;23.70;11.75;;;;;;;-143.48;94.59;118439.88;5093758;28;20446;-68
2023/01/23 08:02:09;;;;;;;26.30;12.23;;;;;;;-143.48;93.89;118439.88;5095308;28;20030;-68
2023/01/23 08:04:35;;;;;;;22.52;11.75;;;;;;;-143.48;93.66;118439.88;5093501;28;20426;-68
2023/01/23 08:07:00;;;;;;;27.00;12.63;;;;;;;-143.48;94.15;118439.88;5093260;28;20077;-68
2023/01/23 08:09:25;;;;;;;25.60;12.00;;;;;;;-143.48;93.79;118439.88;5093176;28;20020;-68
2023/01/23 08:11:51;;;;;;;25.20;12.18;;;;;;;-143.48;93.99;118439.88;5093962;28;20039;-67
2023/01/23 08:14:16;;;;;;;24.85;12.43;;;;;;;-143.48;93.53;118439.88;5093673;28;20027;-68
2023/01/23 08:16:42;;;;;;;28.90;12.38;;;;;;;-143.48;93.96;118439.88;5075307;28;20510;-68
2023/01/23 08:19:07;;;;;;;21.90;12.07;;;;;;;-143.48;93.58;118439.88;5093413;28;20012;-67
2023/01/23 08:21:33;;;;;;;25.00;12.55;;;;;;;-143.48;93.37;118439.88;5093171;28;20495;-67
2023/01/23 08:24:00;;;;;;;24.25;12.05;;;;;;;-143.48;92.96;118439.88;5093250;28;20074;-67
2023/01/23 08:26:26;;;;;;;22.45;12.10;;;;;;;-143.48;92.73;118439.88;5093177;28;20573;-67
2023/01/23 08:28:51;;;;;;;28.38;12.38;;;;;;;-143.48;92.34;118439.88;5075205;28;20110;-67
2023/01/23 08:31:16;;;;;;;28.73;12.60;;;;;;;-143.48;91.80;118439.88;5074994;28;20024;-67
2023/01/23 08:33:42;;;;;;;20.98;11.70;;;;;;;-143.48;91.75;118439.88;5093261;28;20035;-67
2023/01/23 08:36:10;;;;;;;24.58;12.63;;;;;;;-143.48;92.12;118439.88;5093221;28;20020;-68
2023/01/23 08:38:35;;;;;;;21.85;12.27;;;;;;;-143.48;91.09;118439.88;5093145;28;20027;-67
2023/01/23 08:41:02;;;;;;;26.92;12.40;;;;;;;-143.48;90.97;118439.88;5093197;28;20027;-67
2023/01/23 08:43:27;;;;;;;24.80;12.32;;;;;;;-143.48;90.48;118439.88;5092926;28;20020;-67
2023/01/23 08:45:55;;;;;;;25.60;12.40;;;;;;;-143.48;90.24;118439.88;5075029;28;20126;-68
2023/01/23 08:48:22;;;;;;;22.77;12.02;;;;;;;-143.48;90.51;118439.88;5093122;28;20027;-67
2023/01/23 08:50:49;;;;;;;22.50;12.63;;;;;;;-143.48;89.49;118439.88;5093032;28;20028;-67
2023/01/23 08:53:14;;;;;;;24.77;13.15;;;;;;;-143.48;89.46;118439.88;5093087;28;20020;-68
2023/01/23 08:55:40;;;;;;;23.58;12.68;;;;;;;-143.48;89.90;118439.88;5073432;28;20409;-68
2023/01/23 08:58:06;;;;;;;30.95;13.07;;;;;;;-143.48;89.39;118439.88;5091785;28;20511;-68
2023/01/23 09:00:32;;;;;;;26.92;12.60;;;;;;;-143.48;89.24;118439.88;5092829;28;20044;-67
2023/01/23 09:03:02;;;;;;;23.48;12.57;;;;;;;-143.48;89.69;118439.88;5091492;28;20328;-68
2023/01/23 09:05:28;;;;;;;25.20;12.13;;;;;;;-143.48;89.23;118439.88;5092358;28;20364;-67
2023/01/23 09:07:54;;;;;;;25.17;12.30;;;;;;;-143.48;89.69;118439.88;5092359;28;20029;-67
2023/01/23 09:10:20;;;;;;;31.60;12.88;;;;;;;-143.48;90.25;118439.88;5091322;28;20055;-67
2023/01/23 09:12:45;;;;;;;26.92;13.18;;;;;;;-143.48;90.06;118439.88;5096330;28;20517;-67
2023/01/23 09:15:11;;;;;;;28.60;13.70;;;;;;;-143.48;89.89;118439.88;5078267;28;20051;-67
2023/01/23 09:17:36;;;;;;;27.13;12.13;;;;;;;-143.48;90.17;118439.88;5077150;28;20107;-67
2023/01/23 09:20:04;;;;;;;26.60;13.55;;;;;;;-143.48;89.33;118439.88;5095489;28;20483;-67
2023/01/23 09:22:30;;;;;;;26.85;12.52;;;;;;;-143.48;89.05;118439.88;5096652;28;20089;-68
2023/01/23 09:24:55;;;;;;;24.27;12.50;;;;;;;-143.48;87.80;118439.88;5095012;28;20035;-67
2023/01/23 09:27:21;;;;;;;25.75;12.70;;;;;;;-143.48;87.18;118439.88;5076251;28;20487;-68
2023/01/23 09:29:46;;;;;;;20.35;12.80;;;;;;;-143.48;87.14;118439.88;5094287;28;20123;-69
2023/01/23 09:32:11;;;;;;;22.73;13.00;;;;;;;-143.48;85.99;118439.88;5094568;28;20020;-67
2023/01/23 09:34:36;;;;;;;27.17;13.18;;;;;;;-143.48;86.76;118439.88;5100309;28;20020;-67
2023/01/23 09:37:02;;;;;;;23.88;12.77;;;;;;;-143.48;86.08;118439.88;5094119;28;20016;-68
2023/01/23 09:39:28;;;;;;;21.52;12.88;;;;;;;-143.48;85.82;118439.88;5094596;28;20027;-67
2023/01/23 09:41:53;;;;;;;25.65;13.88;;;;;;;-143.48;85.80;118439.88;5078140;28;20107;-67
2023/01/23 09:44:34;;;;;;;23.10;13.07;;;;;;;-143.48;85.38;118439.88;5080531;28;20019;-68
2023/01/23 09:47:43;;;;;;;25.27;12.95;;;;;;;-143.48;84.85;118439.88;5096316;28;20506;-71
2023/01/23 09:50:24;;;;;;;28.10;14.23;;;;;;;-143.48;85.11;118439.88;5096015;28;20024;-71
2023/01/23 09:52:57;;;;;;;25.42;13.43;;;;;;;-143.48;85.70;118439.88;5095894;28;20028;-71
2023/01/23 09:56:08;;;;;;;23.08;12.48;;;;;;;-143.48;86.36;118439.88;5077786;28;20054;-71
2023/01/23 09:58:41;;;;;;;23.05;12.95;;;;;;;-143.48;85.96;118439.88;5072134;28;20067;-71
2023/01/23 10:01:14;;;;;;;24.52;13.20;;;;;;;-143.48;85.97;118439.88;5095810;28;20028;-71
2023/01/23 10:03:40;;;;;;;25.38;12.52;;;;;;;-143.48;86.75;118439.88;5095920;28;20032;-71
2023/01/23 10:06:22;;;;;;;21.55;12.27;;;;;;;-143.48;85.44;118439.88;5095539;28;20016;-73
2023/01/23 10:09:25;;;;;;;23.25;13.02;;;;;;;-143.48;84.79;118439.88;5095528;28;20506;-71
2023/01/23 10:12:03;;;;;;;20.08;11.98;;;;;;;-143.48;82.76;118439.88;5095566;28;20058;-71
2023/01/23 10:14:53;;;;;;;21.38;12.90;;;;;;;-143.48;82.38;118439.88;5095419;28;20035;-71
2023/01/23 10:17:46;;;;;;;21.60;12.25;;;;;;;-143.48;82.71;118439.88;5095426;28;20032;-71
2023/01/23 10:20:14;;;;;;;22.52;12.43;;;;;;;-143.48;80.70;118439.88;5086810;28;20048;-71
2023/01/23 10:22:48;;;;;;;21.25;12.07;;;;;;;-143.48;74.51;118439.88;5094121;28;20050;-71
2023/01/23 10:25:40;;;;;;;24.10;12.95;;;;;;;-143.48;71.64;118439.88;5077129;28;20035;-70
2023/01/23 10:28:20;;;;;;;22.20;12.77;;;;;;;-143.48;69.65;118439.88;5073040;28;20036;-70
2023/01/23 10:30:50;;;;;;;19.23;12.07;;;;;;;-143.48;73.04;118439.88;5095118;28;20063;-70
2023/01/23 10:33:17;;;;;;;18.75;11.82;;;;;;;-143.48;57.90;118439.88;5077067;28;20115;-71
2023/01/23 10:35:52;;;;;;;15.32;11.27;;;;;;;-143.48;56.45;118439.88;5095098;28;20024;-71
2023/01/23 10:38:36;;;;;;;15.63;11.13;;;;;;;-143.48;62.13;118439.88;5094830;28;20016;-71
2023/01/23 10:41:18;;;;;;;15.45;11.07;;;;;;;-143.48;60.14;118439.88;5094720;28;20391;-71
2023/01/23 10:43:46;;;;;;;14.25;10.25;;;;;;;-143.48;55.75;118439.88;5094877;28;20475;-71
2023/01/23 10:46:15;;;;;;;14.90;10.52;;;;;;;-143.48;59.98;118439.88;5076683;28;20029;-71
2023/01/23 10:48:50;;;;;;;14.77;10.18;;;;;;;-143.48;58.73;118439.88;5094805;28;20103;-71
2023/01/23 10:51:29;;;;;;;14.23;10.05;;;;;;;-143.48;52.21;118439.88;5094834;28;20473;-70
2023/01/23 10:54:11;;;;;;;13.07;9.75;;;;;;;-143.48;53.99;118439.88;5094965;28;20190;-71
2023/01/23 10:56:46;;;;;;;13.17;9.60;;;;;;;-143.48;49.08;118439.88;5094726;28;20026;-72
2023/01/23 10:59:19;;;;;;;13.13;9.02;;;;;;;-143.48;50.12;118439.88;5094579;28;20540;-71
2023/01/23 11:01:55;;;;;;;12.80;9.38;;;;;;;-143.48;46.22;118439.88;5094468;28;20070;-71
2023/01/23 11:04:23;;;;;;;12.75;9.18;;;;;;;-143.48;46.65;118439.88;5076236;28;20031;-71
2023/01/23 11:07:13;;;;;;;10.93;8.00;;;;;;;-143.48;43.54;118439.88;5094294;28;20031;-70